M I D A S
Marine Information and Data Acquisition System
Tripno 247 of the Zeeleeuw from 2002-04-22 07:12:33 to 2002-04-22 14:24:39
Back to CruiseResearch ActivitiesStationsMapUnderway DataData graphs

EquipmentUnitsComment
TimeDGPSUTC
LatitudeDGPSDM.mWGS84
LongitudeDGPSDM.mWGS84
HeadingGyrodeg 
SOGDGPSknotsSpeed over ground
COGDGPSdegCourse over ground
DepthEcho soundermeters200 kHz
Missing or incorrect values are displayed as -999
Navigation data collected by the RV Zeeleeuw from 2002-04-22 07:12:33 to 2002-04-22 14:24:39
                                                                                    Next 1000 lines
Time Latitude Longitude Heading SOG COG Depth
2002-04-22 07:12:42 51°15.944 2°53.657 327.2 13.7 329.8 13.6
2002-04-22 07:12:47 51°15.961 2°53.644 329.8 13.7 331.6 13.5
2002-04-22 07:12:52 51°15.978 2°53.628 327.7 13.7 330.2 13.7
2002-04-22 07:12:57 51°15.995 2°53.616 330.5 13.7 332.1 13.7
2002-04-22 07:13:02 51°16.011 2°53.599 328 13.7 331.2 13.7
2002-04-22 07:13:07 51°16.029 2°53.587 330.8 13.7 332.2 13.8
2002-04-22 07:13:12 51°16.045 2°53.571 328.2 13.7 331.2 13.8
2002-04-22 07:13:17 51°16.062 2°53.558 330.8 13.7 332 13.8
2002-04-22 07:13:22 51°16.079 2°53.542 328.3 13.7 331.1 13.9
2002-04-22 07:13:27 51°16.096 2°53.53 330.2 13.7 331.5 13.9
2002-04-22 07:13:32 51°16.112 2°53.514 328.2 13.7 331.6 13.9
2002-04-22 07:13:37 51°16.129 2°53.501 330.2 13.7 331.6 13.9
2002-04-22 07:13:42 51°16.146 2°53.486 328.3 13.7 333 14
2002-04-22 07:13:48 51°16.167 2°53.47 329.5 13.6 331.1 14.1
2002-04-22 07:13:52 51°16.179 2°53.458 328.5 13.7 332.1 14.1
2002-04-22 07:13:57 51°16.196 2°53.443 328.8 13.7 330.9 14.1
2002-04-22 07:14:02 51°16.213 2°53.429 329.2 13.7 332.6 14.1
2002-04-22 07:14:07 51°16.229 2°53.415 328.8 13.6 330.7 14.2
2002-04-22 07:14:12 51°16.246 2°53.401 329.3 13.6 332.1 14.1
2002-04-22 07:14:17 51°16.263 2°53.386 328.3 13.6 330.3 14.2
2002-04-22 07:14:22 51°16.28 2°53.372 329.5 13.7 332.2 14.2
2002-04-22 07:14:27 51°16.296 2°53.357 327.7 13.7 330.2 14.1
2002-04-22 07:14:32 51°16.313 2°53.343 329.8 13.7 332 14.3
2002-04-22 07:14:37 51°16.329 2°53.327 327.3 13.7 330.1 14.3
2002-04-22 07:14:42 51°16.347 2°53.314 329.8 13.8 331.8 14.4
2002-04-22 07:14:47 51°16.363 2°53.298 327.2 13.8 330.3 14.3
2002-04-22 07:14:52 51°16.38 2°53.285 330 13.8 332.3 14.3
2002-04-22 07:14:58 51°16.4 2°53.266 327 13.8 331.1 14.3
2002-04-22 07:15:02 51°16.414 2°53.256 330.2 13.8 332.7 14.3
2002-04-22 07:15:07 51°16.431 2°53.241 329.2 13.8 332.2 14.3
2002-04-22 07:15:12 51°16.449 2°53.229 332.5 13.8 334.6 14.2
2002-04-22 07:15:18 51°16.469 2°53.211 330.3 13.8 333.9 14.2
2002-04-22 07:15:22 51°16.483 2°53.203 332.8 13.9 335 14.2
2002-04-22 07:15:27 51°16.5 2°53.188 330.8 13.9 334.7 14
2002-04-22 07:15:32 51°16.518 2°53.177 333.2 13.8 335.3 14
2002-04-22 07:15:37 51°16.535 2°53.162 331.5 13.8 334.8 14
2002-04-22 07:15:42 51°16.553 2°53.15 332.5 13.8 334.6 13.9
2002-04-22 07:15:47 51°16.569 2°53.136 331.5 13.8 334.7 13.8
2002-04-22 07:15:52 51°16.587 2°53.123 332.3 13.7 333.9 13.6
2002-04-22 07:15:57 51°16.604 2°53.11 331.5 13.7 334.7 13.6
2002-04-22 07:16:02 51°16.621 2°53.097 331.7 13.7 333.6 13.6
2002-04-22 07:16:08 51°16.641 2°53.08 332 13.7 335 13.5
2002-04-22 07:16:12 51°16.655 2°53.07 331.5 13.6 333.2 13.3
2002-04-22 07:16:17 51°16.672 2°53.057 332.2 13.7 334.9 13.4
2002-04-22 07:16:22 51°16.689 2°53.042 330.3 13.7 332.4 13.2
2002-04-22 07:16:27 51°16.706 2°53.03 331.5 13.7 333.9 13.3
2002-04-22 07:16:32 51°16.722 2°53.014 328.7 13.6 331.1 12.7
2002-04-22 07:16:37 51°16.739 2°53.001 330 13.6 332.6 12.5
2002-04-22 07:16:42 51°16.755 2°52.984 327 13.6 330.4 12.3
2002-04-22 07:16:48 51°16.775 2°52.968 329.2 13.6 330.6 12.3
2002-04-22 07:16:52 51°16.787 2°52.954 326 13.6 328.3 12.1
2002-04-22 07:16:57 51°16.804 2°52.94 328 13.6 329.5 10.9
2002-04-22 07:17:02 51°16.819 2°52.923 325 13.5 327.8 10.8
2002-04-22 07:17:08 51°16.839 2°52.905 327.3 13.5 328.6 10.7
2002-04-22 07:17:12 51°16.851 2°52.891 324.8 13.4 327.5 10.7
2002-04-22 07:17:18 51°16.871 2°52.874 327.2 13.4 328.1 10.9
2002-04-22 07:17:22 51°16.883 2°52.86 325.2 13.4 327.4 10.4
2002-04-22 07:17:27 51°16.899 2°52.845 327.2 13.5 327.9 11.2
2002-04-22 07:17:32 51°16.915 2°52.829 325.7 13.6 328.4 11
2002-04-22 07:17:37 51°16.932 2°52.814 327.3 13.6 328.4 11.3
2002-04-22 07:17:42 51°16.948 2°52.797 326.5 13.7 328.7 11.4
2002-04-22 07:17:47 51°16.964 2°52.783 328 13.6 328.3 11.3
2002-04-22 07:17:52 51°16.98 2°52.767 327 13.7 329.3 11.4
2002-04-22 07:17:57 51°16.997 2°52.752 327.7 13.7 328.5 11.5
2002-04-22 07:18:02 51°17.013 2°52.736 327.3 13.7 329.3 11.7
2002-04-22 07:18:08 51°17.033 2°52.718 327.7 13.7 328.4 11.5
2002-04-22 07:18:12 51°17.046 2°52.705 327 13.7 329.4 12.2
2002-04-22 07:18:18 51°17.066 2°52.687 327 13.7 328.2 12
2002-04-22 07:18:22 51°17.079 2°52.674 327.3 13.8 329.3 11.6
2002-04-22 07:18:28 51°17.098 2°52.656 327.5 13.7 328.1 11.6
2002-04-22 07:18:32 51°17.112 2°52.644 328.3 13.7 330.2 11.5
2002-04-22 07:18:37 51°17.128 2°52.628 327.5 13.7 328.9 11.6
2002-04-22 07:18:42 51°17.145 2°52.614 329.5 13.7 331 10.6
2002-04-22 07:18:47 51°17.161 2°52.598 327.7 13.6 329.2 11.3
2002-04-22 07:18:52 51°17.178 2°52.584 329.3 13.7 330.9 11.5
2002-04-22 07:18:57 51°17.193 2°52.567 326.8 13.6 329 11.5
2002-04-22 07:19:02 51°17.21 2°52.553 328.8 13.6 329.6 11.8
2002-04-22 07:19:07 51°17.226 2°52.536 325.8 13.6 328.4 11.5
2002-04-22 07:19:12 51°17.242 2°52.522 327 13.6 328.8 11.7
2002-04-22 07:19:18 51°17.26 2°52.5 323.5 13.5 326.5 11.7
2002-04-22 07:19:22 51°17.273 2°52.488 324.7 13.5 326.6 12.1
2002-04-22 07:19:27 51°17.288 2°52.469 320.7 13.5 324.4 11.4
2002-04-22 07:19:32 51°17.304 2°52.452 322.2 13.5 324.1 12
2002-04-22 07:19:37 51°17.318 2°52.432 319.5 13.5 323 12.4
2002-04-22 07:19:42 51°17.333 2°52.415 320.8 13.5 321.8 12.2
2002-04-22 07:19:47 51°17.347 2°52.394 317.2 13.5 321.4 11.8
2002-04-22 07:19:52 51°17.362 2°52.376 317.7 13.5 320 12.3
2002-04-22 07:19:57 51°17.375 2°52.355 314.8 13.5 318.9 12.4
2002-04-22 07:20:02 51°17.389 2°52.335 315 13.5 317.1 12
2002-04-22 07:20:07 51°17.403 2°52.314 313.5 13.6 317.2 12.3
2002-04-22 07:20:12 51°17.416 2°52.293 313.8 13.5 315.9 12.4
2002-04-22 07:20:17 51°17.429 2°52.272 312.5 13.6 316.2 12.2
2002-04-22 07:20:22 51°17.443 2°52.251 313 13.5 315 12.3
2002-04-22 07:20:27 51°17.456 2°52.23 312.3 13.6 316 12.5
2002-04-22 07:20:32 51°17.47 2°52.209 313.2 13.5 315 12.3
2002-04-22 07:20:37 51°17.483 2°52.188 313 13.5 316.2 12.3
2002-04-22 07:20:43 51°17.499 2°52.164 312.7 13.5 314.5 12.5
2002-04-22 07:20:47 51°17.509 2°52.146 310.5 13.5 315.1 12.3
2002-04-22 07:20:52 51°17.522 2°52.124 310 13.4 312.3 12.4
2002-04-22 07:20:58 51°17.536 2°52.097 308.8 13.5 312.9 12.5
2002-04-22 07:21:02 51°17.546 2°52.079 308 13.4 310.4 12.6
2002-04-22 07:21:07 51°17.558 2°52.056 307.3 13.4 311.3 12.6
2002-04-22 07:21:12 51°17.57 2°52.033 306.7 13.3 309.2 12.2
2002-04-22 07:21:17 51°17.582 2°52.011 307 13.4 310.3 12.4
2002-04-22 07:21:22 51°17.593 2°51.988 306.5 13.3 308.8 12.5
2002-04-22 07:21:27 51°17.605 2°51.965 307.3 13.3 310 12.5
2002-04-22 07:21:32 51°17.616 2°51.942 305.8 13.3 308.2 12.5
2002-04-22 07:21:37 51°17.628 2°51.919 305.3 13.3 309.2 12.3
2002-04-22 07:21:42 51°17.639 2°51.895 304.7 13.2 307 12.5
2002-04-22 07:21:47 51°17.65 2°51.872 304.7 13.3 307.9 12.3
2002-04-22 07:21:52 51°17.661 2°51.848 303.5 13.2 305.6 12
2002-04-22 07:21:57 51°17.672 2°51.826 304.5 13.2 307.1 12.2
2002-04-22 07:22:02 51°17.682 2°51.801 303 13.1 305.1 12.1
2002-04-22 07:22:07 51°17.693 2°51.778 303.7 13.2 306.5 12.3
2002-04-22 07:22:12 51°17.703 2°51.754 303.2 13.1 304.9 12.1
2002-04-22 07:22:17 51°17.715 2°51.731 304.2 13.1 306.4 12.1
2002-04-22 07:22:22 51°17.724 2°51.706 302.2 13.1 304.5 12
2002-04-22 07:22:27 51°17.736 2°51.684 304 13.2 305.9 11.9
2002-04-22 07:22:32 51°17.746 2°51.659 302.8 13.1 305.1 12
2002-04-22 07:22:37 51°17.757 2°51.637 304.7 13.2 306.9 11.9
2002-04-22 07:22:42 51°17.768 2°51.613 304 13.2 306.4 12.1
2002-04-22 07:22:47 51°17.779 2°51.59 305 13.1 307.4 12.2
2002-04-22 07:22:52 51°17.789 2°51.566 303.8 13.1 306.2 12.2
2002-04-22 07:22:57 51°17.801 2°51.544 305.3 13.1 307.6 12.2
2002-04-22 07:23:02 51°17.811 2°51.52 303.5 13.1 305.7 12.2
2002-04-22 07:23:08 51°17.825 2°51.493 304.7 13 306.4 12.3
2002-04-22 07:23:12 51°17.833 2°51.473 303.3 13 305.5 12.3
2002-04-22 07:23:17 51°17.845 2°51.451 304.7 13.1 306.7 12.4
2002-04-22 07:23:22 51°17.854 2°51.427 303 13.1 306 12.5
2002-04-22 07:23:27 51°17.866 2°51.404 304.5 13.1 306.8 12.6
2002-04-22 07:23:32 51°17.876 2°51.38 303.2 13 305.9 12.5
2002-04-22 07:23:37 51°17.888 2°51.358 304.5 13.1 306.6 12.7
2002-04-22 07:23:42 51°17.898 2°51.333 302.8 13.1 305.6 12.8
2002-04-22 07:23:47 51°17.91 2°51.31 304.5 13.2 306.4 12.9
2002-04-22 07:23:52 51°17.919 2°51.286 302.7 13.2 305.4 13
2002-04-22 07:23:57 51°17.931 2°51.263 304.3 13.2 306.2 13
2002-04-22 07:24:02 51°17.941 2°51.238 302.8 13.3 306.4 13
2002-04-22 07:24:07 51°17.953 2°51.215 304.3 13.3 306 13.2
2002-04-22 07:24:12 51°17.962 2°51.191 303 13.3 305.3 13.4
2002-04-22 07:24:17 51°17.974 2°51.168 304.5 13.3 305.9 13.2
2002-04-22 07:24:22 51°17.984 2°51.143 303 13.3 305.4 13.5
2002-04-22 07:24:28 51°17.998 2°51.115 304 13.3 305.4 13.8
2002-04-22 07:24:32 51°18.006 2°51.094 302.7 13.3 304.7 13.7
2002-04-22 07:24:38 51°18.02 2°51.067 303.7 13.3 305.2 14
2002-04-22 07:24:42 51°18.027 2°51.047 303.2 13.3 305.3 13.9
2002-04-22 07:24:47 51°18.039 2°51.024 304.7 13.3 306 14.3
2002-04-22 07:24:52 51°18.049 2°50.999 303 13.4 305.9 14.3
2002-04-22 07:24:57 51°18.061 2°50.976 304.3 13.4 306.2 14.5
2002-04-22 07:25:02 51°18.071 2°50.951 302.8 13.4 306.2 14.5
2002-04-22 07:25:08 51°18.085 2°50.923 303.7 13.3 305.4 14.6
2002-04-22 07:25:12 51°18.093 2°50.903 302.7 13.3 305.6 14.7
2002-04-22 07:25:17 51°18.105 2°50.879 303.8 13.4 305.3 14.8
2002-04-22 07:25:22 51°18.115 2°50.854 302.7 13.4 305.4 14.8
2002-04-22 07:25:27 51°18.126 2°50.831 303.3 13.4 304.8 14.8
2002-04-22 07:25:32 51°18.136 2°50.806 302.7 13.4 305.3 15
2002-04-22 07:25:37 51°18.148 2°50.783 303.3 13.4 304.9 15.1
2002-04-22 07:25:42 51°18.158 2°50.758 302.3 13.4 306.2 15.1
2002-04-22 07:25:47 51°18.169 2°50.734 302.8 13.3 304.4 15.2
2002-04-22 07:25:52 51°18.179 2°50.71 302 13.3 305.1 15.2
2002-04-22 07:25:57 51°18.19 2°50.686 302.8 13.3 304.4 15.3
2002-04-22 07:26:02 51°18.201 2°50.661 302.2 13.3 306.1 15.2
2002-04-22 07:26:07 51°18.212 2°50.637 302.7 13.3 304.4 15.2
2002-04-22 07:26:12 51°18.222 2°50.613 302.2 13.4 305.5 15.5
2002-04-22 07:26:17 51°18.233 2°50.589 302.3 13.3 304.3 15.6
2002-04-22 07:26:22 51°18.243 2°50.565 302.3 13.4 305.4 15.6
2002-04-22 07:26:28 51°18.256 2°50.536 302.2 13.3 303.8 15.7
2002-04-22 07:26:32 51°18.265 2°50.517 302.3 13.4 305.5 15.9
2002-04-22 07:26:37 51°18.275 2°50.492 301.7 13.3 303.9 15.9
2002-04-22 07:26:42 51°18.286 2°50.468 302.3 13.3 305.3 15.8
2002-04-22 07:26:47 51°18.296 2°50.444 301.7 13.3 303.8 16
2002-04-22 07:26:52 51°18.307 2°50.42 302 13.3 305.5 16
2002-04-22 07:26:57 51°18.317 2°50.395 301.5 13.3 303.6 16.2
2002-04-22 07:27:02 51°18.328 2°50.371 301.7 13.3 305.1 16.2
2002-04-22 07:27:08 51°18.34 2°50.342 301 13.3 303.3 16.2
2002-04-22 07:27:12 51°18.349 2°50.323 302 13.3 305 16.1
2002-04-22 07:27:17 51°18.358 2°50.298 301.3 13.3 303.4 16.2
2002-04-22 07:27:22 51°18.37 2°50.275 302.5 13.3 305.2 16.3
2002-04-22 07:27:27 51°18.379 2°50.25 301.3 13.3 303.9 16.2
2002-04-22 07:27:32 51°18.391 2°50.226 302.3 13.4 305.3 16.3
2002-04-22 07:27:37 51°18.4 2°50.201 301.3 13.3 303.8 16.2
2002-04-22 07:27:42 51°18.412 2°50.177 302.3 13.4 305.4 16.2
2002-04-22 07:27:47 51°18.421 2°50.152 301.3 13.4 304 16.2
2002-04-22 07:27:52 51°18.433 2°50.128 302.5 13.4 305 16.1
2002-04-22 07:27:57 51°18.443 2°50.103 301.5 13.4 304.3 16.2
2002-04-22 07:28:02 51°18.455 2°50.08 302.7 13.5 305.8 16.2
2002-04-22 07:28:07 51°18.464 2°50.054 301.3 13.4 304.2 16.1
2002-04-22 07:28:12 51°18.476 2°50.031 302.7 13.5 305.8 16
2002-04-22 07:28:17 51°18.486 2°50.005 301.3 13.5 304.2 15.8
2002-04-22 07:28:22 51°18.497 2°49.981 302.2 13.5 305.4 15.7
2002-04-22 07:28:27 51°18.507 2°49.956 301 13.5 303.8 15.5
2002-04-22 07:28:32 51°18.519 2°49.932 302.2 13.5 304.7 15.6
2002-04-22 07:28:38 51°18.531 2°49.902 301.2 13.5 304 15.3
2002-04-22 07:28:42 51°18.54 2°49.883 302.2 13.5 304.8 15.1
2002-04-22 07:28:47 51°18.549 2°49.858 301.2 13.5 303.9 15.3
2002-04-22 07:28:52 51°18.561 2°49.834 302.5 13.5 305.4 15
2002-04-22 07:28:57 51°18.57 2°49.808 300.8 13.4 303.5 15.1
2002-04-22 07:29:02 51°18.582 2°49.785 302.2 13.4 304.9 14.7
2002-04-22 07:29:07 51°18.591 2°49.759 300.7 13.4 303.2 14.5
2002-04-22 07:29:12 51°18.602 2°49.735 302.2 13.4 304.4 14.4
2002-04-22 07:29:17 51°18.611 2°49.71 300.3 13.3 302.5 14.1
2002-04-22 07:29:22 51°18.623 2°49.686 302.3 13.3 304.3 14.3
2002-04-22 07:29:28 51°18.633 2°49.656 300.2 13.2 303 14
2002-04-22 07:29:32 51°18.643 2°49.637 302.2 13.2 303.7 13.4
2002-04-22 07:29:37 51°18.651 2°49.612 300.3 13.2 303.1 12.8
2002-04-22 07:29:42 51°18.663 2°49.589 302.2 13.1 302.8 13
2002-04-22 07:29:47 51°18.672 2°49.564 300.2 13 303.3 13
2002-04-22 07:29:52 51°18.682 2°49.54 302.2 13 303.7 13
2002-04-22 07:29:57 51°18.691 2°49.515 300.3 13 303.1 12.7
2002-04-22 07:30:02 51°18.702 2°49.492 302.2 13 303.5 12.6
2002-04-22 07:30:08 51°18.713 2°49.462 301.2 13 303.5 12.6
2002-04-22 07:30:12 51°18.722 2°49.444 302.7 13 302.8 12.5
2002-04-22 07:30:17 51°18.731 2°49.419 301.3 13 303.5 12.3
2002-04-22 07:30:22 51°18.742 2°49.397 302.8 13 304.2 12.3
2002-04-22 07:30:28 51°18.753 2°49.367 301.3 12.9 303.9 12.6
2002-04-22 07:30:32 51°18.762 2°49.349 302.8 12.9 304.4 12.7
2002-04-22 07:30:37 51°18.771 2°49.324 301.2 12.9 303.9 12.9
2002-04-22 07:30:42 51°18.782 2°49.301 302.3 12.9 302.8 13
2002-04-22 07:30:47 51°18.791 2°49.277 301.2 12.9 303.9 13.2
2002-04-22 07:30:52 51°18.802 2°49.253 302.5 13 304 12.9
2002-04-22 07:30:57 51°18.811 2°49.229 301.5 13 304.4 13.2
2002-04-22 07:31:02 51°18.822 2°49.205 302.7 13 303.8 13.3
2002-04-22 07:31:07 51°18.831 2°49.181 301.7 13 304.6 13.2
2002-04-22 07:31:12 51°18.842 2°49.158 302.3 12.9 303.6 13.2
2002-04-22 07:31:17 51°18.852 2°49.134 301.8 13 304.7 12.8
2002-04-22 07:31:22 51°18.862 2°49.11 302.3 13 302.8 13.3
2002-04-22 07:31:28 51°18.873 2°49.081 301.7 13 304.6 13.5
2002-04-22 07:31:32 51°18.882 2°49.062 301.8 13 303.2 13.6
2002-04-22 07:31:37 51°18.892 2°49.038 301.5 13.1 304.2 13.8
2002-04-22 07:31:42 51°18.902 2°49.014 301.7 13.1 303.2 13.8
2002-04-22 07:31:47 51°18.912 2°48.99 301.8 13.1 304.3 13.8
2002-04-22 07:31:52 51°18.922 2°48.965 301.7 13.1 303 14
2002-04-22 07:31:57 51°18.932 2°48.942 301.8 13.1 304.7 14.2
2002-04-22 07:32:02 51°18.942 2°48.917 302 13.1 303.3 14.6
2002-04-22 07:32:07 51°18.953 2°48.893 301.8 13.2 304.6 14.9
2002-04-22 07:32:12 51°18.962 2°48.868 301.5 13.1 302.9 15
2002-04-22 07:32:17 51°18.973 2°48.844 301.3 13.2 304.4 15.4
2002-04-22 07:32:22 51°18.982 2°48.819 300.5 13.2 301.8 15.8
2002-04-22 07:32:27 51°18.993 2°48.795 301.7 13.2 304 16
2002-04-22 07:32:32 51°19.002 2°48.77 300.2 13.2 301.9 16.2
2002-04-22 07:32:37 51°19.013 2°48.746 302 13.2 303.8 16.3
2002-04-22 07:32:42 51°19.021 2°48.72 299.7 13.2 301.2 16.4
2002-04-22 07:32:47 51°19.032 2°48.697 302.2 13.2 303.3 16.6
2002-04-22 07:32:52 51°19.041 2°48.672 300 13.2 301.6 16.6
2002-04-22 07:32:57 51°19.052 2°48.648 302.3 13.2 304.1 16.7
2002-04-22 07:33:02 51°19.061 2°48.623 300.7 13.1 302.6 16.8
2002-04-22 07:33:07 51°19.073 2°48.6 303.2 13.1 303.8 17
2002-04-22 07:33:12 51°19.082 2°48.575 301.5 13.1 303.8 17.2
2002-04-22 07:33:17 51°19.093 2°48.552 303 13.1 304 17.4
2002-04-22 07:33:22 51°19.103 2°48.528 302.3 13.1 304.7 17.7
2002-04-22 07:33:28 51°19.116 2°48.5 302.8 13.1 304.3 17.9
2002-04-22 07:33:32 51°19.124 2°48.48 302 13.2 304.6 18.1
2002-04-22 07:33:37 51°19.135 2°48.456 303 13.2 304 18.4
2002-04-22 07:33:42 51°19.144 2°48.431 302 13.2 305.5 18.5
2002-04-22 07:33:47 51°19.155 2°48.408 303 13.1 304 18.7
2002-04-22 07:33:52 51°19.165 2°48.384 301.3 13.1 304.2 18.9
2002-04-22 07:33:57 51°19.176 2°48.36 302.3 13.1 303.7 19.1
2002-04-22 07:34:03 51°19.187 2°48.33 300.8 13.1 303.4 19.3
2002-04-22 07:34:07 51°19.197 2°48.312 302.8 13.1 303.8 19.5
2002-04-22 07:34:12 51°19.205 2°48.287 300.2 13.1 304.5 19.7
2002-04-22 07:34:18 51°19.219 2°48.259 301.8 13.1 303.3 19.9
2002-04-22 07:34:22 51°19.225 2°48.238 299.5 13.1 302.5 20.1
2002-04-22 07:34:27 51°19.236 2°48.215 301.3 13.1 302.4 20
2002-04-22 07:34:32 51°19.245 2°48.19 300 13 302.7 20.5
2002-04-22 07:34:37 51°19.255 2°48.166 301.2 13 302.5 20.6
2002-04-22 07:34:42 51°19.265 2°48.142 300.8 13.1 303.4 20.8
2002-04-22 07:34:47 51°19.276 2°48.118 301.7 13.1 303.1 20.9
2002-04-22 07:34:52 51°19.286 2°48.093 301.8 13.1 304.3 21
2002-04-22 07:34:57 51°19.296 2°48.07 302.5 13.1 304.1 21
2002-04-22 07:35:02 51°19.306 2°48.045 301.8 13.1 304.5 21.3
2002-04-22 07:35:08 51°19.32 2°48.017 302.8 13.1 304.3 21.5
2002-04-22 07:35:12 51°19.327 2°47.997 302.2 13.2 304.8 21.6
2002-04-22 07:35:17 51°19.338 2°47.973 303 13.2 304.4 21.8
2002-04-22 07:35:22 51°19.348 2°47.949 301.7 13.3 304.5 22
2002-04-22 07:35:28 51°19.362 2°47.92 302.5 13.3 303.8 22.4
2002-04-22 07:35:32 51°19.369 2°47.9 301.5 13.3 304.4 21.9
2002-04-22 07:35:37 51°19.38 2°47.876 302.2 13.3 303.1 22.6
2002-04-22 07:35:43 51°19.392 2°47.846 301.7 13.4 305.1 22.1
2002-04-22 07:35:47 51°19.4 2°47.826 301.2 13.3 302.2 22.8
2002-04-22 07:35:52 51°19.41 2°47.802 300.8 13.4 303.8 22.6
2002-04-22 07:35:58 51°19.422 2°47.772 299.7 13.3 301.4 23.1
2002-04-22 07:36:02 51°19.431 2°47.753 301.2 13.3 303.7 23.2
2002-04-22 07:36:07 51°19.44 2°47.727 299.5 13.2 301.9 23.4
2002-04-22 07:36:12 51°19.451 2°47.703 301.7 13.3 303.7 23.5
2002-04-22 07:36:17 51°19.46 2°47.678 300.8 13.3 303.3 23.5
2002-04-22 07:36:22 51°19.472 2°47.655 302.7 13.4 304.5 23.5
2002-04-22 07:36:27 51°19.481 2°47.629 301.7 13.4 304.3 23.6
2002-04-22 07:36:32 51°19.493 2°47.606 303 13.4 305.2 23.7
2002-04-22 07:36:37 51°19.503 2°47.581 302 13.4 305 23.7
2002-04-22 07:36:42 51°19.514 2°47.557 303 13.4 304.3 23.8
2002-04-22 07:36:47 51°19.524 2°47.532 301.8 13.4 305 23.8
2002-04-22 07:36:52 51°19.536 2°47.508 303.5 13.5 305.7 23.8
2002-04-22 07:36:57 51°19.545 2°47.483 301.8 13.4 305 23.7
2002-04-22 07:37:03 51°19.56 2°47.455 303.5 13.4 305.7 23.7
2002-04-22 07:37:07 51°19.567 2°47.434 301.7 13.4 305 23.7
2002-04-22 07:37:12 51°19.578 2°47.411 302.7 13.4 305.2 23.7
2002-04-22 07:37:18 51°19.59 2°47.381 301.5 13.4 305.2 23.6
2002-04-22 07:37:22 51°19.599 2°47.362 302.2 13.3 304.2 23.7
2002-04-22 07:37:27 51°19.609 2°47.338 301.3 13.3 305.2 23.6
2002-04-22 07:37:32 51°19.62 2°47.313 301.7 13.3 303.6 23.6
2002-04-22 07:37:38 51°19.632 2°47.284 301 13.3 305 23.6
2002-04-22 07:37:42 51°19.64 2°47.265 301.3 13.3 303.4 23.6
2002-04-22 07:37:47 51°19.65 2°47.24 300.3 13.3 304.7 23.6
2002-04-22 07:37:52 51°19.659 2°47.215 298.7 13.2 301.3 23.7
2002-04-22 07:37:57 51°19.67 2°47.19 298 13.2 302.7 23.4
2002-04-22 07:38:02 51°19.678 2°47.164 296.2 13.1 298.8 23.6
2002-04-22 07:38:07 51°19.687 2°47.139 296.5 13.2 300.5 23.4
2002-04-22 07:38:12 51°19.695 2°47.112 294.2 13.1 297 23.4
2002-04-22 07:38:17 51°19.704 2°47.087 295.8 13.1 298.5 23.4
2002-04-22 07:38:22 51°19.711 2°47.061 292.8 13 295.4 23.2
2002-04-22 07:38:27 51°19.72 2°47.035 293 13.1 296.1 23
2002-04-22 07:38:32 51°19.726 2°47.009 290.2 13 293.4 22.9
2002-04-22 07:38:38 51°19.735 2°46.977 290.2 13 293.2 22.7
2002-04-22 07:38:42 51°19.74 2°46.955 288.5 13 291.6 22.7
2002-04-22 07:38:47 51°19.747 2°46.929 288 13 291.4 22.7
2002-04-22 07:38:52 51°19.752 2°46.901 287.2 13 289.8 22.5
2002-04-22 07:38:57 51°19.759 2°46.874 287.5 13.1 290.8 22.4
2002-04-22 07:39:02 51°19.765 2°46.847 286.5 13.1 289.4 22.1
2002-04-22 07:39:07 51°19.772 2°46.82 287.8 13.1 290.5 22.2
2002-04-22 07:39:12 51°19.777 2°46.792 287 13.1 289.8 22
2002-04-22 07:39:17 51°19.784 2°46.765 287.3 13.1 290.5 21.3
2002-04-22 07:39:22 51°19.791 2°46.738 288 13.1 290.8 20.3
2002-04-22 07:39:27 51°19.797 2°46.711 288.2 13.1 291 20.8
2002-04-22 07:39:32 51°19.804 2°46.684 288.3 13.1 291.2 20.9
2002-04-22 07:39:37 51°19.811 2°46.657 288.8 13.1 291.6 20.5
2002-04-22 07:39:42 51°19.818 2°46.63 289 13.1 291.9 20.8
2002-04-22 07:39:47 51°19.824 2°46.603 288.7 13.1 291.1 20.6
2002-04-22 07:39:52 51°19.83 2°46.575 288.7 13.1 289.7 20
2002-04-22 07:39:57 51°19.836 2°46.548 289.3 13 289.7 19.3
2002-04-22 07:40:02 51°19.842 2°46.522 289.8 13 290.3 19.7
2002-04-22 07:40:08 51°19.851 2°46.49 290.8 13 291 18.9
2002-04-22 07:40:12 51°19.855 2°46.469 290.5 12.9 291.5 18.4
2002-04-22 07:40:17 51°19.862 2°46.442 290.7 12.9 291 17
2002-04-22 07:40:22 51°19.868 2°46.416 290 12.8 291.2 17.9
2002-04-22 07:40:28 51°19.876 2°46.384 290.2 12.8 290.8 17.9
2002-04-22 07:40:32 51°19.881 2°46.363 290.3 12.8 291.3 17.4
2002-04-22 07:40:38 51°19.89 2°46.331 290.5 12.8 291.4 16
2002-04-22 07:40:42 51°19.894 2°46.31 290.2 12.8 291.4 17.6
2002-04-22 07:40:47 51°19.901 2°46.284 290.3 12.8 291 17.8
2002-04-22 07:40:52 51°19.907 2°46.258 289.8 12.7 291.3 17.2
2002-04-22 07:40:57 51°19.913 2°46.231 289.5 12.7 290.6 16.1
2002-04-22 07:41:02 51°19.92 2°46.205 290.2 12.8 291.3 15.8
2002-04-22 07:41:07 51°19.926 2°46.179 289.5 12.7 291 13.5
2002-04-22 07:41:12 51°19.932 2°46.152 289.8 12.6 291 15.4
2002-04-22 07:41:17 51°19.939 2°46.127 290 12.6 291.4 13.8
2002-04-22 07:41:22 51°19.945 2°46.101 290 12.6 291.2 15.3
2002-04-22 07:41:27 51°19.951 2°46.074 289.8 12.6 291.2 16.4
2002-04-22 07:41:32 51°19.958 2°46.048 289.5 12.6 291.1 15.1
2002-04-22 07:41:38 51°19.965 2°46.017 289.8 12.7 291 15.7
2002-04-22 07:41:42 51°19.971 2°45.996 290 12.7 290.9 16
2002-04-22 07:41:47 51°19.977 2°45.97 289.7 12.7 291.4 16.4
2002-04-22 07:41:52 51°19.983 2°45.944 289.5 12.7 291.1 15.2
2002-04-22 07:41:57 51°19.99 2°45.918 289.8 12.6 291.6 14.6
2002-04-22 07:42:02 51°19.996 2°45.892 289.3 12.6 291.1 16.4
2002-04-22 07:42:07 51°20.003 2°45.866 289.8 12.6 291.6 17.2
2002-04-22 07:42:12 51°20.009 2°45.84 289.8 12.6 291.8 17.1
2002-04-22 07:42:17 51°20.016 2°45.814 289.3 12.6 291.4 17.3
2002-04-22 07:42:22 51°20.022 2°45.788 289.8 12.7 291.6 17.7
2002-04-22 07:42:27 51°20.028 2°45.762 289.5 12.7 291.5 18.3
2002-04-22 07:42:32 51°20.036 2°45.736 290 12.7 292.2 17.7
2002-04-22 07:42:37 51°20.042 2°45.709 289.5 12.7 291.8 13.8
2002-04-22 07:42:42 51°20.049 2°45.683 290.3 12.7 292.4 15.7
2002-04-22 07:42:48 51°20.056 2°45.652 289.5 12.7 292.2 17.9
2002-04-22 07:42:52 51°20.062 2°45.632 289.8 12.6 292 19.6
2002-04-22 07:42:57 51°20.068 2°45.605 289.7 12.7 292 19.3
2002-04-22 07:43:02 51°20.075 2°45.579 289.8 12.8 292.2 20.2
2002-04-22 07:43:07 51°20.082 2°45.552 289.7 12.8 291.9 21.6
2002-04-22 07:43:12 51°20.088 2°45.526 289.7 12.8 291.7 22.5
2002-04-22 07:43:17 51°20.095 2°45.5 289.3 12.9 291.9 23.1
2002-04-22 07:43:22 51°20.102 2°45.473 289.2 12.9 291.6 23.4
2002-04-22 07:43:28 51°20.11 2°45.441 289.5 12.9 292 23.8
2002-04-22 07:43:32 51°20.115 2°45.42 289.3 12.9 292 24
2002-04-22 07:43:37 51°20.122 2°45.393 289.8 12.9 292.2 24.2
2002-04-22 07:43:42 51°20.129 2°45.367 289.8 12.9 292.2 24.3
2002-04-22 07:43:48 51°20.137 2°45.335 289.7 12.9 292.3 24.3
2002-04-22 07:43:52 51°20.142 2°45.314 289.5 12.9 292.2 24.5
2002-04-22 07:43:58 51°20.15 2°45.282 289.3 12.9 291.5 24.9
2002-04-22 07:44:02 51°20.155 2°45.26 289.5 12.9 291.9 24.9
2002-04-22 07:44:07 51°20.161 2°45.233 287.2 12.9 290.4 25.2
2002-04-22 07:44:12 51°20.167 2°45.207 286.7 12.8 289.4 25.3
2002-04-22 07:44:17 51°20.172 2°45.179 285 12.8 288.1 25.2
2002-04-22 07:44:22 51°20.178 2°45.152 284.7 12.8 287.5 25.1
2002-04-22 07:44:28 51°20.183 2°45.12 283.8 12.8 286.3 25.5
2002-04-22 07:44:32 51°20.187 2°45.098 283.7 12.8 286.3 25.5
2002-04-22 07:44:37 51°20.191 2°45.07 282.7 12.7 285.1 25.4
2002-04-22 07:44:42 51°20.196 2°45.043 283.5 12.8 285.6 25.7
2002-04-22 07:44:48 51°20.202 2°45.01 283.3 12.8 285.4 25.8
2002-04-22 07:44:52 51°20.206 2°44.988 284 12.8 285.9 25.9
2002-04-22 07:44:58 51°20.211 2°44.955 283.7 12.8 285.5 26
2002-04-22 07:45:02 51°20.216 2°44.934 284.2 12.8 286 26.1
2002-04-22 07:45:07 51°20.22 2°44.906 284.2 12.8 285.8 26.2
2002-04-22 07:45:12 51°20.226 2°44.879 284.3 12.8 285.9 26.3
2002-04-22 07:45:17 51°20.23 2°44.852 284 12.8 285.9 26.4
2002-04-22 07:45:22 51°20.235 2°44.824 284.3 12.8 286.1 26.5
2002-04-22 07:45:27 51°20.24 2°44.797 284.3 12.8 285.8 26.5
2002-04-22 07:45:32 51°20.245 2°44.77 284.5 12.8 286 26.6
2002-04-22 07:45:37 51°20.25 2°44.742 284.8 12.9 285.8 26.5
2002-04-22 07:45:42 51°20.255 2°44.715 285.2 12.9 286.6 26.8
2002-04-22 07:45:48 51°20.261 2°44.682 284.8 12.9 286.2 26.8
2002-04-22 07:45:52 51°20.265 2°44.66 284.8 12.8 286.4 26.9
2002-04-22 07:45:57 51°20.27 2°44.633 284.5 12.8 285.9 27.2
2002-04-22 07:46:02 51°20.275 2°44.606 284.5 12.7 285.7 27.3
2002-04-22 07:46:07 51°20.28 2°44.579 284.5 12.8 285.3 27.5
2002-04-22 07:46:12 51°20.284 2°44.551 284.5 12.8 285.3 27.6
2002-04-22 07:46:17 51°20.289 2°44.524 283.8 12.8 285.3 27.8
2002-04-22 07:46:22 51°20.293 2°44.497 283.5 12.7 284.4 28
2002-04-22 07:46:27 51°20.298 2°44.47 284.2 12.8 285.1 28.3
2002-04-22 07:46:32 51°20.302 2°44.442 283.2 12.7 284.5 28.5
2002-04-22 07:46:37 51°20.307 2°44.415 283.7 12.7 284.7 28.6
2002-04-22 07:46:42 51°20.311 2°44.388 284.2 12.7 284.8 28.5
2002-04-22 07:46:48 51°20.317 2°44.355 284 12.8 285.5 28.6
2002-04-22 07:46:52 51°20.32 2°44.333 283.3 12.7 284.5 28.8
2002-04-22 07:46:58 51°20.326 2°44.301 283.3 12.7 284.8 28.9
2002-04-22 07:47:02 51°20.33 2°44.279 283.8 12.8 284.7 29
2002-04-22 07:47:07 51°20.334 2°44.252 283.5 12.7 285.2 29.1
2002-04-22 07:47:12 51°20.339 2°44.224 283.8 12.7 285.3 29.1
2002-04-22 07:47:17 51°20.344 2°44.197 284 12.7 285.6 29.2
2002-04-22 07:47:22 51°20.349 2°44.17 283.7 12.8 285.4 29.3
2002-04-22 07:47:27 51°20.353 2°44.142 283.8 12.8 285.4 29.2
2002-04-22 07:47:32 51°20.358 2°44.115 283.7 12.8 285.3 29.3
2002-04-22 07:47:37 51°20.362 2°44.088 283.5 12.8 285.2 29.3
2002-04-22 07:47:42 51°20.367 2°44.061 283.7 12.8 284.8 29.2
2002-04-22 07:47:47 51°20.372 2°44.033 283.5 12.8 285 29.4
2002-04-22 07:47:52 51°20.376 2°44.006 283.5 12.8 285.1 29.4
2002-04-22 07:47:57 51°20.381 2°43.978 283.5 12.8 285 29.2
2002-04-22 07:48:02 51°20.386 2°43.951 283.8 12.8 285.4 29.1
2002-04-22 07:48:08 51°20.391 2°43.918 283.5 12.8 285.4 29.1
2002-04-22 07:48:12 51°20.395 2°43.896 283.3 12.8 284.6 29.1
2002-04-22 07:48:17 51°20.399 2°43.868 283.5 12.8 284 29.2
2002-04-22 07:48:22 51°20.403 2°43.841 283.7 12.8 284.3 29.3
2002-04-22 07:48:28 51°20.409 2°43.808 284 12.8 284.3 29.3
2002-04-22 07:48:32 51°20.412 2°43.786 284.2 12.8 284.8 29.3
2002-04-22 07:48:37 51°20.417 2°43.758 284.2 12.8 284.6 29.4
2002-04-22 07:48:42 51°20.421 2°43.731 284.2 12.8 284.7 29.3
2002-04-22 07:48:47 51°20.426 2°43.703 284 12.8 284.1 29.3
2002-04-22 07:48:52 51°20.43 2°43.676 284.3 12.9 284.9 29.4
2002-04-22 07:48:57 51°20.434 2°43.648 284 12.8 284.2 29.2
2002-04-22 07:49:02 51°20.439 2°43.621 282.7 12.8 284.3 28.7
2002-04-22 07:49:08 51°20.443 2°43.587 281.3 12.7 282.2 28.8
2002-04-22 07:49:12 51°20.446 2°43.565 280 12.7 281.5 29.1
2002-04-22 07:49:17 51°20.448 2°43.538 279 12.7 279.8 28.9
2002-04-22 07:49:22 51°20.451 2°43.51 278.7 12.6 279.3 28.9
2002-04-22 07:49:27 51°20.453 2°43.482 277.5 12.6 278.1 28.7
2002-04-22 07:49:32 51°20.456 2°43.455 277.3 12.6 277.6 28.8
2002-04-22 07:49:37 51°20.457 2°43.427 276.7 12.6 276.8 28.6
2002-04-22 07:49:43 51°20.46 2°43.394 277 12.7 276.8 28.3
2002-04-22 07:50:02 51°20.469 2°43.292 1 11.9 278.4 28.1
2002-04-22 07:50:07 51°20.472 2°43.269 0.5 11.2 278.4 28.1
2002-04-22 07:50:11 51°20.474 2°43.251 0.8 10.4 278.9 28.9
2002-04-22 07:50:15 51°20.475 2°43.235 1 10 279.3 29.8
2002-04-22 07:50:19 51°20.477 2°43.219 1.3 9.5 279.8 30.3
2002-04-22 07:50:23 51°20.479 2°43.204 1.5 9 280.5 30.7
2002-04-22 07:50:28 51°20.481 2°43.187 1.8 8.6 280.8 30.8
2002-04-22 07:50:52 51°20.492 2°43.119 5.3 6 286.4 28.7
2002-04-22 07:50:57 51°20.495 2°43.107 6.7 5.8 287.7 28.3
2002-04-22 07:51:02 51°20.498 2°43.096 8.2 5.4 289.8 28.1
2002-04-22 07:51:07 51°20.5 2°43.086 9.7 5.1 291.8 27.5
2002-04-22 07:51:12 51°20.503 2°43.077 11.7 4.9 294.1 27.5
2002-04-22 07:51:17 51°20.506 2°43.068 13.3 4.6 296.6 27.4
2002-04-22 07:51:22 51°20.509 2°43.06 15.3 4.5 298.5 26.9
2002-04-22 07:51:27 51°20.512 2°43.052 17.5 4.3 301 27
2002-04-22 07:51:32 51°20.516 2°43.045 19.3 4.1 304 26.8
2002-04-22 07:51:37 51°20.519 2°43.038 21.3 3.9 306.3 26.7
2002-04-22 07:51:42 51°20.523 2°43.032 23.2 3.8 309.8 26.6
2002-04-22 07:51:47 51°20.526 2°43.025 25.2 3.9 312 26.6
2002-04-22 07:51:52 51°20.53 2°43.018 26.3 4 313.1 26.5
2002-04-22 07:51:57 51°20.535 2°43.011 27.3 4.4 313.4 26.5
2002-04-22 07:52:02 51°20.54 2°43.002 28 5.1 313.3 26.4
2002-04-22 07:52:08 51°20.547 2°42.99 28.5 5.5 313 26.2
2002-04-22 07:52:12 51°20.552 2°42.982 28.7 6.1 312.2 24.5
2002-04-22 07:52:17 51°20.558 2°42.971 28.7 6.5 312 23.9
2002-04-22 07:52:22 51°20.565 2°42.959 28.7 6.9 311.8 24.1
2002-04-22 07:52:27 51°20.571 2°42.947 28.7 7.2 311.7 24.4
2002-04-22 07:52:32 51°20.579 2°42.934 28.8 7.4 311.9 24.4
2002-04-22 07:52:37 51°20.586 2°42.921 29 7.7 311.6 24.5
2002-04-22 07:52:42 51°20.593 2°42.908 29 7.9 311.4 24.6
2002-04-22 07:52:48 51°20.602 2°42.892 28.8 8 311.4 24.4
2002-04-22 07:52:52 51°20.608 2°42.881 28.8 8.2 311.2 24.4
2002-04-22 07:52:58 51°20.617 2°42.863 27.5 8.3 311.1 24.6
2002-04-22 07:53:02 51°20.623 2°42.85 13.8 8.8 308.9 24.4
2002-04-22 07:53:07 51°20.631 2°42.833 6 9 307.9 23.2
2002-04-22 07:53:12 51°20.64 2°42.814 5.3 10.1 305.4 20
2002-04-22 07:53:17 51°20.649 2°42.794 8.7 10.6 306 21.3
2002-04-22 07:53:22 51°20.659 2°42.775 11 11.1 308.6 22.4
2002-04-22 07:53:28 51°20.67 2°42.75 9 11.4 308.5 23.3
2002-04-22 07:53:32 51°20.678 2°42.733 5.7 11.6 305.6 23.5
2002-04-22 07:53:37 51°20.685 2°42.71 334.2 11.6 302.3 23.7
2002-04-22 07:53:42 51°20.692 2°42.687 306 11.7 296.9 23.5
2002-04-22 07:53:48 51°20.699 2°42.657 302 11.7 293.3 23.4
2002-04-22 07:53:52 51°20.704 2°42.638 301.5 11.8 291.1 23.4
2002-04-22 07:53:57 51°20.71 2°42.614 301.8 11.9 291.4 23.2
2002-04-22 07:54:02 51°20.716 2°42.589 301.5 11.9 292.6 22.8
2002-04-22 07:54:07 51°20.723 2°42.565 292.8 11.9 292.4 19.3
2002-04-22 07:54:12 51°20.728 2°42.54 289.2 11.9 291.4 20.1
2002-04-22 07:54:17 51°20.734 2°42.515 287.7 11.9 290 21.1
2002-04-22 07:54:22 51°20.739 2°42.49 288.2 11.9 289.5 21.8
2002-04-22 07:54:28 51°20.746 2°42.46 289 11.9 289.8 22
2002-04-22 07:54:32 51°20.751 2°42.441 290.2 12 290.9 22
2002-04-22 07:54:37 51°20.757 2°42.416 289.8 12 291.2 22
2002-04-22 07:54:42 51°20.763 2°42.391 288.2 12 291.1 21.6
2002-04-22 07:54:48 51°20.769 2°42.361 288 11.9 288.9 20.5
2002-04-22 07:54:52 51°20.772 2°42.341 285.7 11.8 287.7 17.5
2002-04-22 07:54:58 51°20.776 2°42.311 281.7 11.7 284.2 18.1
2002-04-22 07:55:02 51°20.778 2°42.29 279 11.8 280.9 19.4
2002-04-22 07:55:08 51°20.78 2°42.258 276 11.8 277.8 19.8
2002-04-22 07:55:12 51°20.781 2°42.237 273.5 11.9 274.8 19.7
2002-04-22 07:55:17 51°20.781 2°42.21 271.5 12 272.5 19.6
2002-04-22 07:55:22 51°20.781 2°42.184 273.3 12.1 271.1 18.4
2002-04-22 07:55:27 51°20.78 2°42.157 272.2 12.1 269.3 19.3
2002-04-22 07:55:32 51°20.78 2°42.13 271.7 12.1 269 20.3
2002-04-22 07:55:37 51°20.779 2°42.103 270.5 12.2 268.1 18.6
2002-04-22 07:55:42 51°20.779 2°42.076 270.8 12.2 267.9 14.8
2002-04-22 07:55:48 51°20.779 2°42.043 271 12.2 268.9 17.7
2002-04-22 07:55:52 51°20.779 2°42.022 269.7 12.2 269.8 20.1
2002-04-22 07:55:57 51°20.78 2°41.995 270.3 12.2 271 21.8
2002-04-22 07:56:02 51°20.78 2°41.967 271.2 12.3 271.6 22.8
2002-04-22 07:56:07 51°20.781 2°41.94 272.3 12.4 272.1 23.6
2002-04-22 07:56:12 51°20.782 2°41.912 273.2 12.4 273.3 23.3
2002-04-22 07:56:17 51°20.783 2°41.885 273.2 12.4 273.4 19.8
2002-04-22 07:56:22 51°20.784 2°41.857 273.3 12.5 273.9 22.3
2002-04-22 07:56:27 51°20.786 2°41.83 273.7 12.5 273.8 24
2002-04-22 07:56:32 51°20.787 2°41.802 273.7 12.4 274.2 24.7
2002-04-22 07:56:37 51°20.788 2°41.775 273.5 12.4 274.3 25
2002-04-22 07:56:42 51°20.79 2°41.747 273.2 12.5 274.5 25.3
2002-04-22 07:56:47 51°20.791 2°41.72 273.2 12.5 274.2 25.6
2002-04-22 07:56:52 51°20.792 2°41.692 273 12.5 273.9 25.6
2002-04-22 07:56:58 51°20.794 2°41.659 273.2 12.5 274.2 25.4
2002-04-22 07:57:02 51°20.794 2°41.637 273.2 12.5 274 25
2002-04-22 07:57:07 51°20.796 2°41.609 273.7 12.5 274.8 25.3
2002-04-22 07:57:12 51°20.797 2°41.581 273.7 12.5 274.3 25.7
2002-04-22 07:57:17 51°20.799 2°41.554 273.7 12.5 274.9 26.4
2002-04-22 07:57:22 51°20.8 2°41.526 273.8 12.5 274.8 26.7
2002-04-22 07:57:28 51°20.802 2°41.493 273.5 12.5 275.1 27.2
2002-04-22 07:57:32 51°20.803 2°41.471 273.5 12.5 274.6 27.6
2002-04-22 07:57:37 51°20.804 2°41.443 273.2 12.5 274.5 28.2
2002-04-22 07:57:42 51°20.806 2°41.416 273.3 12.5 274.5 28.1
2002-04-22 07:57:47 51°20.807 2°41.388 273.2 12.6 274.7 28.5
2002-04-22 07:57:52 51°20.809 2°41.36 273.3 12.6 274.9 28.5
2002-04-22 07:57:57 51°20.81 2°41.332 273.5 12.6 275 28.7
2002-04-22 07:58:02 51°20.812 2°41.304 273.3 12.7 275 28.5
2002-04-22 07:58:07 51°20.813 2°41.276 273.2 12.7 274.8 28.6
2002-04-22 07:58:12 51°20.815 2°41.248 273.3 12.7 275 28.4
2002-04-22 07:58:17 51°20.816 2°41.22 273.5 12.7 274.8 28.5
2002-04-22 07:58:22 51°20.818 2°41.192 273.7 12.8 275.1 28.5
2002-04-22 07:58:27 51°20.819 2°41.163 273.3 12.8 275 28.2
2002-04-22 07:58:32 51°20.821 2°41.135 273.3 12.8 275.2 28.2
2002-04-22 07:58:37 51°20.822 2°41.107 272.8 12.8 274.9 28.2
2002-04-22 07:58:42 51°20.824 2°41.079 272.7 12.8 274.6 28.1
2002-04-22 07:58:48 51°20.826 2°41.045 273.2 12.8 274.8 28
2002-04-22 07:58:52 51°20.827 2°41.022 273.2 12.8 274.9 27.9
2002-04-22 07:58:58 51°20.829 2°40.988 273.5 12.8 275.2 27.6
2002-04-22 07:59:02 51°20.83 2°40.966 273.7 12.8 275.4 27.6
2002-04-22 07:59:07 51°20.832 2°40.938 273.7 12.8 275.4 27.7
2002-04-22 07:59:12 51°20.833 2°40.909 273.3 12.8 275.2 27.5
2002-04-22 07:59:18 51°20.835 2°40.875 273.2 12.8 274.9 27.7
2002-04-22 07:59:22 51°20.836 2°40.853 273.3 12.8 274.8 27.8
2002-04-22 07:59:27 51°20.838 2°40.824 273.3 12.8 274.8 28.1
2002-04-22 07:59:32 51°20.84 2°40.796 273.3 12.8 275.1 28.3
2002-04-22 07:59:37 51°20.841 2°40.768 273.2 12.8 274.8 28.3
2002-04-22 07:59:42 51°20.842 2°40.74 273.5 12.8 275 28.3
2002-04-22 07:59:47 51°20.844 2°40.712 273.3 12.8 274.7 28.5
2002-04-22 07:59:53 51°20.846 2°40.678 273.3 12.8 274.9 28.6
2002-04-22 07:59:57 51°20.847 2°40.655 273.2 12.8 274.7 28.6
2002-04-22 08:00:02 51°20.848 2°40.627 273.2 12.8 274.9 28.2
2002-04-22 08:00:08 51°20.85 2°40.593 273.2 12.8 274.7 26.2
2002-04-22 08:00:12 51°20.851 2°40.57 273.5 12.8 274.9 26.9
2002-04-22 08:00:18 51°20.853 2°40.536 273.5 12.8 274.8 27.5
2002-04-22 08:00:22 51°20.854 2°40.514 273.7 12.8 274.9 28
2002-04-22 08:00:28 51°20.856 2°40.48 273.3 12.8 275.1 28.2
2002-04-22 08:00:32 51°20.858 2°40.458 273.3 12.7 275 28.4
2002-04-22 08:00:37 51°20.859 2°40.43 273.2 12.7 274.8 28.5
2002-04-22 08:00:42 51°20.86 2°40.402 273 12.7 274.7 28.5
2002-04-22 08:00:48 51°20.862 2°40.368 273.2 12.7 274.8 28.7
2002-04-22 08:00:52 51°20.863 2°40.346 273.5 12.7 275 28.6
2002-04-22 08:00:58 51°20.865 2°40.312 273.5 12.7 275.1 27.3
2002-04-22 08:01:02 51°20.867 2°40.29 273.3 12.7 275 27.2
2002-04-22 08:01:07 51°20.868 2°40.262 273.3 12.7 274.8 27.3
2002-04-22 08:01:12 51°20.87 2°40.234 273.5 12.7 275 28
2002-04-22 08:01:17 51°20.871 2°40.206 273.5 12.7 275.4 28.1
2002-04-22 08:01:22 51°20.873 2°40.178 273.5 12.7 275.1 28.4
2002-04-22 08:01:27 51°20.874 2°40.15 273.3 12.7 275.2 28.7
2002-04-22 08:01:32 51°20.876 2°40.122 273.3 12.7 275 28.9
2002-04-22 08:01:38 51°20.878 2°40.088 273.2 12.7 275.2 29
2002-04-22 08:01:42 51°20.879 2°40.066 273.2 12.7 274.9 28.9
2002-04-22 08:01:47 51°20.88 2°40.038 273.2 12.7 274.8 29.1
2002-04-22 08:01:52 51°20.882 2°40.01 273.2 12.7 275 29
2002-04-22 08:01:58 51°20.884 2°39.977 273.3 12.7 274.6 29
2002-04-22 08:02:02 51°20.885 2°39.954 273.2 12.7 274.8 28.9
2002-04-22 08:02:08 51°20.887 2°39.921 273 12.7 274.7 28.7
2002-04-22 08:02:12 51°20.888 2°39.898 273.5 12.7 275 28.6
2002-04-22 08:02:17 51°20.89 2°39.87 273.5 12.7 274.9 28.6
2002-04-22 08:02:22 51°20.891 2°39.842 273.3 12.7 275.2 28.4
2002-04-22 08:02:27 51°20.893 2°39.814 273.5 12.7 275.1 28.4
2002-04-22 08:02:32 51°20.894 2°39.786 273.5 12.7 275.2 28.2
2002-04-22 08:02:37 51°20.896 2°39.758 273.3 12.7 274.9 28.1
2002-04-22 08:02:43 51°20.898 2°39.724 273.5 12.7 275.1 28
2002-04-22 08:02:48 51°20.899 2°39.696 273.3 12.7 274.9 27.7
2002-04-22 08:02:52 51°20.901 2°39.674 273.5 12.7 275.2 27.8
2002-04-22 08:02:57 51°20.902 2°39.645 273.5 12.7 275.3 27.7
2002-04-22 08:03:02 51°20.904 2°39.618 273.5 12.7 275.2 27.5
2002-04-22 08:03:08 51°20.906 2°39.584 273.5 12.6 275.2 27.4
2002-04-22 08:03:12 51°20.907 2°39.562 273.3 12.6 275.1 27.3
2002-04-22 08:03:17 51°20.909 2°39.534 273.5 12.6 275.2 27.4
2002-04-22 08:03:22 51°20.91 2°39.506 273.5 12.6 275.1 27.5
2002-04-22 08:03:27 51°20.912 2°39.479 273.5 12.6 275.4 27.4
2002-04-22 08:03:32 51°20.913 2°39.451 273.2 12.6 275.3 27.3
2002-04-22 08:03:37 51°20.915 2°39.423 273.5 12.7 275.3 27.2
2002-04-22 08:03:42 51°20.916 2°39.395 273.2 12.7 275 27
2002-04-22 08:03:47 51°20.918 2°39.367 273.3 12.6 275.4 26.9
2002-04-22 08:03:52 51°20.92 2°39.339 273.2 12.6 275.1 27.3
2002-04-22 08:03:57 51°20.921 2°39.311 273.3 12.6 275.6 27.4
2002-04-22 08:04:02 51°20.923 2°39.284 273.2 12.6 275.2 27.5
2002-04-22 08:04:07 51°20.925 2°39.256 273.2 12.6 275.4 27.1
2002-04-22 08:04:12 51°20.926 2°39.228 273.3 12.6 275.4 26.7
2002-04-22 08:04:17 51°20.928 2°39.2 273.5 12.6 275.5 27.5
2002-04-22 08:04:22 51°20.93 2°39.173 273.5 12.5 275.7 27.5
2002-04-22 08:04:28 51°20.931 2°39.14 273.7 12.5 275.4 27.7
2002-04-22 08:04:32 51°20.933 2°39.118 273.3 12.5 275.7 27.4
2002-04-22 08:04:37 51°20.935 2°39.09 273.7 12.5 275.6 27.2
2002-04-22 08:04:43 51°20.937 2°39.057 273.3 12.5 275.9 27.4
2002-04-22 08:04:47 51°20.938 2°39.035 273.2 12.5 275.7 27
2002-04-22 08:04:52 51°20.94 2°39.007 273 12.5 275.2 26.8
2002-04-22 08:04:57 51°20.941 2°38.979 273.2 12.6 275.5 26.5
2002-04-22 08:05:02 51°20.943 2°38.952 273.3 12.6 275.3 26.8
2002-04-22 08:05:08 51°20.945 2°38.919 273.3 12.6 275.7 27
2002-04-22 08:05:12 51°20.947 2°38.896 273.5 12.6 275.7 26.5
2002-04-22 08:05:18 51°20.948 2°38.863 273.3 12.6 275.7 25.9
2002-04-22 08:05:22 51°20.95 2°38.841 273.3 12.6 275.7 26.2
2002-04-22 08:05:27 51°20.952 2°38.813 273.3 12.7 275.5 26.8
2002-04-22 08:05:32 51°20.953 2°38.785 273.2 12.7 275.7 26.8
2002-04-22 08:05:38 51°20.955 2°38.751 273.3 12.7 275.4 26.8
2002-04-22 08:05:41 51°20.957 2°38.734 273.3 12.7 275.8 26.5
2002-04-22 08:05:47 51°20.958 2°38.701 273.5 12.7 275.3 25.8
2002-04-22 08:05:52 51°20.96 2°38.673 273.5 12.7 275.6 26.3
2002-04-22 08:05:57 51°20.962 2°38.645 273.7 12.7 275.6 26.8
2002-04-22 08:06:03 51°20.964 2°38.611 273.3 12.7 275.5 26.8
2002-04-22 08:06:08 51°20.966 2°38.583 273.2 12.7 275.3 26.7
2002-04-22 08:06:12 51°20.967 2°38.561 273.2 12.7 275.2 26.7
2002-04-22 08:06:18 51°20.969 2°38.527 273.3 12.7 275.4 26.5
2002-04-22 08:06:22 51°20.97 2°38.505 273.2 12.7 275.4 26.6
2002-04-22 08:06:27 51°20.972 2°38.477 273.2 12.7 275.3 26.3
2002-04-22 08:06:32 51°20.973 2°38.449 273.3 12.7 275.2 26.5
2002-04-22 08:06:38 51°20.976 2°38.415 273.8 12.7 275.7 26.3
2002-04-22 08:06:42 51°20.977 2°38.393 273.2 12.7 275.3 25.6
2002-04-22 08:06:48 51°20.979 2°38.359 272.8 12.7 275.4 25.5
2002-04-22 08:06:52 51°20.98 2°38.337 272.8 12.7 275 26.4
2002-04-22 08:06:57 51°20.982 2°38.309 273.2 12.7 275.2 26.3
2002-04-22 08:07:02 51°20.984 2°38.281 273.2 12.7 275.3 26.3
2002-04-22 08:07:08 51°20.985 2°38.247 272.8 12.7 275.2 26.5
2002-04-22 08:07:12 51°20.987 2°38.225 273.2 12.7 275.3 26.4
2002-04-22 08:07:17 51°20.989 2°38.197 274 12.7 275.5 26.5
2002-04-22 08:07:22 51°20.991 2°38.169 274 12.7 276.2 26.2
2002-04-22 08:07:27 51°20.992 2°38.141 273.5 12.7 275.8 26.7
2002-04-22 08:07:32 51°20.994 2°38.113 273.3 12.7 275.8 26.6
2002-04-22 08:07:37 51°20.996 2°38.085 273.5 12.7 275.5 26.6
2002-04-22 08:07:42 51°20.998 2°38.057 273.5 12.7 275.7 26.3
2002-04-22 08:07:47 51°20.999 2°38.029 273 12.7 275.4 25.9
2002-04-22 08:07:52 51°21.001 2°38.001 273.3 12.7 275.6 25.2
2002-04-22 08:07:57 51°21.003 2°37.973 273.2 12.7 275.5 26.1
2002-04-22 08:08:02 51°21.004 2°37.945 273.5 12.7 275.8 26.9
2002-04-22 08:08:07 51°21.006 2°37.917 273.3 12.6 275.9 26.9
2002-04-22 08:08:12 51°21.008 2°37.89 273.5 12.6 275.8 26.6
2002-04-22 08:08:17 51°21.01 2°37.862 273.3 12.6 275.9 26.8
2002-04-22 08:08:22 51°21.012 2°37.834 273.3 12.6 276 26.4
2002-04-22 08:08:28 51°21.014 2°37.801 273.3 12.6 276.1 26.4
2002-04-22 08:08:32 51°21.016 2°37.778 273.7 12.6 276.2 26.5
2002-04-22 08:08:38 51°21.018 2°37.745 273.5 12.7 276.3 26.8
2002-04-22 08:08:43 51°21.02 2°37.717 273.7 12.7 276.1 26.4
2002-04-22 08:08:47 51°21.021 2°37.694 273.5 12.7 276.3 26.7
2002-04-22 08:08:52 51°21.023 2°37.666 273.5 12.8 276.4 26.8
2002-04-22 08:08:57 51°21.025 2°37.638 273.7 12.8 276.5 25.1
2002-04-22 08:09:02 51°21.027 2°37.61 273.7 12.8 276.7 26.5
2002-04-22 08:09:08 51°21.03 2°37.576 273.5 12.8 276.6 26.9
2002-04-22 08:09:12 51°21.031 2°37.553 273.5 12.8 276.6 27
2002-04-22 08:09:17 51°21.033 2°37.525 273.3 12.8 276.8 26.8
2002-04-22 08:09:22 51°21.035 2°37.497 273.3 12.8 276.5 25.9
2002-04-22 08:09:27 51°21.037 2°37.469 273.5 12.8 276.5 26.5
2002-04-22 08:09:32 51°21.039 2°37.44 273.3 12.8 276.5 26.8
2002-04-22 08:09:38 51°21.042 2°37.407 273.7 12.8 276.4 26.2
2002-04-22 08:09:42 51°21.043 2°37.384 273.2 12.8 276.3 26.3
2002-04-22 08:09:47 51°21.045 2°37.356 273.3 12.8 276.1 25.4
2002-04-22 08:09:52 51°21.047 2°37.328 273.3 12.8 276.2 25.5
2002-04-22 08:09:57 51°21.049 2°37.299 273.3 12.8 276.3 26.3
2002-04-22 08:10:02 51°21.051 2°37.271 273.2 12.8 276 25.7
2002-04-22 08:10:07 51°21.053 2°37.243 273.3 12.8 275.9 24.8
2002-04-22 08:10:12 51°21.055 2°37.214 273.2 12.8 276 25.8
2002-04-22 08:10:17 51°21.057 2°37.186 273.3 12.8 275.7 25.7
2002-04-22 08:10:22 51°21.058 2°37.158 273.2 12.8 276.1 24.3
2002-04-22 08:10:27 51°21.06 2°37.13 273 12.8 275.9 25.7
2002-04-22 08:10:32 51°21.062 2°37.101 273.3 12.8 276.2 25.3
2002-04-22 08:10:38 51°21.065 2°37.067 273.5 12.9 276 24.5
2002-04-22 08:10:42 51°21.067 2°37.044 273.8 12.9 276.5 25.6
2002-04-22 08:10:47 51°21.069 2°37.016 273.3 12.9 276.4 25.7
2002-04-22 08:10:53 51°21.071 2°36.981 273.3 12.9 276.5 25.1
2002-04-22 08:10:57 51°21.073 2°36.959 273.3 12.8 276.2 25.1
2002-04-22 08:11:02 51°21.075 2°36.931 273.5 12.9 276.4 26.1
2002-04-22 08:11:07 51°21.077 2°36.902 273.2 12.9 276 26.7
2002-04-22 08:11:12 51°21.079 2°36.873 273.2 12.9 276.2 26.4
2002-04-22 08:11:18 51°21.081 2°36.84 273.3 12.9 276.1 25.9
2002-04-22 08:11:22 51°21.083 2°36.817 273.2 12.9 276.3 23.7
2002-04-22 08:11:28 51°21.085 2°36.783 273 12.9 275.9 26.1
2002-04-22 08:11:32 51°21.085 2°36.761 272.3 12.8 274.4 27
2002-04-22 08:11:37 51°21.086 2°36.734 272.5 12.7 273.8 27.4
2002-04-22 08:11:42 51°21.087 2°36.706 273 12.6 273.9 27.9
2002-04-22 08:11:48 51°21.089 2°36.673 273.7 12.6 274.2 28.3
2002-04-22 08:11:52 51°21.09 2°36.651 273.7 12.5 275.2 27.3
2002-04-22 08:11:57 51°21.092 2°36.624 274.5 12.5 275.1 25.4
2002-04-22 08:12:02 51°21.093 2°36.596 274 12.4 275.6 27.2
2002-04-22 08:12:08 51°21.096 2°36.563 273.8 12.4 275.4 28.2
2002-04-22 08:12:12 51°21.097 2°36.542 273.5 12.4 275.3 29.1
2002-04-22 08:12:18 51°21.099 2°36.509 273.7 12.3 275.1 29
2002-04-22 08:12:22 51°21.099 2°36.488 273.3 12.3 275.1 27.6
2002-04-22 08:12:28 51°21.102 2°36.455 273.5 12.3 275.2 27.9
2002-04-22 08:12:32 51°21.102 2°36.433 273.5 12.3 275 29.2
2002-04-22 08:12:38 51°21.105 2°36.4 273.5 12.3 275.2 29.7
2002-04-22 08:12:42 51°21.106 2°36.379 273.3 12.3 275 29
2002-04-22 08:12:47 51°21.107 2°36.351 273.5 12.4 275 27.5
2002-04-22 08:12:52 51°21.109 2°36.324 273.5 12.4 275.3 29.3
2002-04-22 08:12:57 51°21.111 2°36.296 273.7 12.5 275.4 30.3
2002-04-22 08:13:02 51°21.112 2°36.269 273.5 12.5 275.3 30.1
2002-04-22 08:13:07 51°21.114 2°36.241 273.7 12.5 275.5 26.8
2002-04-22 08:13:13 51°21.116 2°36.209 273.3 12.4 275.1 27.1
2002-04-22 08:13:17 51°21.117 2°36.187 273.7 12.4 275.8 28.4
2002-04-22 08:13:22 51°21.119 2°36.16 273.3 12.4 275.6 30
2002-04-22 08:13:27 51°21.121 2°36.133 273.3 12.3 275.7 30.8
2002-04-22 08:13:32 51°21.122 2°36.105 272.8 12.3 274.9 31.4
2002-04-22 08:13:37 51°21.124 2°36.078 273.5 12.3 275.5 32.6
2002-04-22 08:13:42 51°21.125 2°36.051 273 12.3 274.9 32.9
2002-04-22 08:13:48 51°21.127 2°36.018 273.3 12.3 275.5 30.6
2002-04-22 08:13:52 51°21.128 2°35.996 273 12.4 274.8 31.1
2002-04-22 08:13:57 51°21.13 2°35.969 273.3 12.4 275.2 32.8
2002-04-22 08:14:02 51°21.131 2°35.942 273 12.4 274.9 32.9
2002-04-22 08:14:07 51°21.133 2°35.915 273.7 12.4 275.7 33.2
2002-04-22 08:14:12 51°21.135 2°35.887 273.8 12.4 275.6 32.4
2002-04-22 08:14:18 51°21.137 2°35.854 273.7 12.4 276.2 32.6
2002-04-22 08:14:22 51°21.138 2°35.833 273.5 12.4 276.1 32.5
2002-04-22 08:14:27 51°21.14 2°35.805 273.3 12.4 276.3 30.4
2002-04-22 08:14:32 51°21.142 2°35.778 273.7 12.4 276.2 31.9
2002-04-22 08:14:37 51°21.144 2°35.751 273.3 12.4 276.2 29.6
2002-04-22 08:14:42 51°21.146 2°35.724 273.5 12.4 275.8 31.2
2002-04-22 08:14:47 51°21.147 2°35.696 273.2 12.3 276 32
2002-04-22 08:14:52 51°21.149 2°35.669 273.3 12.3 275.9 33.9
2002-04-22 08:14:57 51°21.151 2°35.642 273.3 12.3 275.9 34.6
2002-04-22 08:15:02 51°21.153 2°35.615 273 12.3 275.9 34.9
2002-04-22 08:15:07 51°21.154 2°35.588 273.5 12.3 276 33.5
2002-04-22 08:15:12 51°21.156 2°35.561 273 12.3 276.3 34.8
2002-04-22 08:15:17 51°21.158 2°35.533 273.5 12.3 276.2 35.1
2002-04-22 08:15:22 51°21.16 2°35.506 273.2 12.3 276 35.1
2002-04-22 08:15:28 51°21.162 2°35.474 273.7 12.4 276 35.9
2002-04-22 08:15:32 51°21.164 2°35.452 273.5 12.4 276.4 36.1
2002-04-22 08:15:37 51°21.166 2°35.425 273.8 12.4 276.7 36.2
2002-04-22 08:15:42 51°21.168 2°35.397 273.7 12.4 276.7 36.7
2002-04-22 08:15:47 51°21.17 2°35.37 273.3 12.4 276.7 35.7
2002-04-22 08:15:52 51°21.172 2°35.343 273.3 12.4 276.5 33.9
2002-04-22 08:15:58 51°21.174 2°35.31 273.2 12.4 276.5 35.4
2002-04-22 08:16:02 51°21.176 2°35.288 273.5 12.4 276.3 34.1
2002-04-22 08:16:08 51°21.178 2°35.255 273.5 12.4 276.9 35.3
2002-04-22 08:16:12 51°21.18 2°35.233 273.7 12.4 276.6 34.9
2002-04-22 08:16:17 51°21.182 2°35.206 273.3 12.5 276.9 35.4
2002-04-22 08:16:22 51°21.184 2°35.178 273.3 12.5 276.6 35.5
2002-04-22 08:16:27 51°21.185 2°35.151 273.2 12.5 276.4 33.6
2002-04-22 08:16:32 51°21.188 2°35.123 273.5 12.5 276.6 35.3
2002-04-22 08:16:37 51°21.189 2°35.096 273.2 12.6 276.2 35.3
2002-04-22 08:16:42 51°21.192 2°35.068 273.5 12.6 276.5 34.6
2002-04-22 08:16:48 51°21.194 2°35.034 273.7 12.6 276.8 33.6
2002-04-22 08:16:52 51°21.196 2°35.012 273.5 12.7 276.8 34.5
2002-04-22 08:16:57 51°21.198 2°34.984 273.3 12.7 276.7 33.9
2002-04-22 08:17:02 51°21.2 2°34.956 273.2 12.7 276.3 32.6
2002-04-22 08:17:08 51°21.202 2°34.922 273.2 12.7 276.5 34.1
2002-04-22 08:17:12 51°21.204 2°34.9 273.3 12.7 276.7 34.2
2002-04-22 08:17:17 51°21.206 2°34.872 273.2 12.7 276.6 33
2002-04-22 08:17:22 51°21.208 2°34.844 273.3 12.7 276.6 33
2002-04-22 08:17:27 51°21.21 2°34.816 273.3 12.7 276.6 34.1
2002-04-22 08:17:32 51°21.212 2°34.788 273.7 12.7 276.9 34.1
2002-04-22 08:17:37 51°21.214 2°34.76 273.3 12.7 276.8 32.8
2002-04-22 08:17:42 51°21.216 2°34.732 273.3 12.7 276.9 33.7
2002-04-22 08:17:47 51°21.218 2°34.704 273.5 12.7 276.9 33.4
2002-04-22 08:17:52 51°21.221 2°34.676 273.3 12.7 277 32.6
2002-04-22 08:17:57 51°21.222 2°34.649 273.5 12.7 276.7 32.4
2002-04-22 08:18:02 51°21.225 2°34.621 273.2 12.6 276.9 32.1
2002-04-22 08:18:08 51°21.227 2°34.587 273.2 12.6 276.6 32.6
2002-04-22 08:18:12 51°21.229 2°34.565 273.2 12.6 276.6 32.7
2002-04-22 08:18:17 51°21.231 2°34.537 273.3 12.6 276.7 33.4
2002-04-22 08:18:22 51°21.233 2°34.509 273.7 12.6 277.1 33
2002-04-22 08:18:28 51°21.236 2°34.476 273.5 12.6 277.4 32.7
2002-04-22 08:18:32 51°21.237 2°34.454 273.2 12.6 277 32.7
2002-04-22 08:18:37 51°21.24 2°34.426 273.3 12.7 277 32.4
2002-04-22 08:18:42 51°21.242 2°34.398 273 12.7 276.8 32.1
2002-04-22 08:18:47 51°21.244 2°34.37 273.5 12.7 277 32.3
2002-04-22 08:18:53 51°21.246 2°34.337 273.3 12.7 277.1 32.1
2002-04-22 08:18:58 51°21.249 2°34.309 273.7 12.7 277.4 31.9
2002-04-22 08:19:02 51°21.25 2°34.287 273.3 12.7 277.3 32.1
2002-04-22 08:19:07 51°21.253 2°34.259 273.5 12.7 277.3 31.7
2002-04-22 08:19:12 51°21.255 2°34.231 273.2 12.7 277.2 31.7
2002-04-22 08:19:17 51°21.257 2°34.203 273.5 12.7 277.2 32
2002-04-22 08:19:22 51°21.259 2°34.175 273.5 12.7 277.1 32.1
2002-04-22 08:19:28 51°21.262 2°34.141 273.2 12.7 277.5 32.2
2002-04-22 08:19:32 51°21.264 2°34.119 273.5 12.7 277.2 32.8
2002-04-22 08:19:37 51°21.266 2°34.091 273.3 12.7 277.2 32.9
2002-04-22 08:19:42 51°21.268 2°34.063 273.5 12.7 277 33.6
2002-04-22 08:19:47 51°21.27 2°34.035 273.5 12.7 277.3 33.3
2002-04-22 08:19:52 51°21.273 2°34.007 273.5 12.8 277.1 33.5
2002-04-22 08:19:57 51°21.275 2°33.979 273.3 12.8 277.3 33.8
2002-04-22 08:20:02 51°21.277 2°33.95 273.2 12.8 277.2 33.8
2002-04-22 08:20:08 51°21.28 2°33.917 273.5 12.8 277.3 33.5
2002-04-22 08:20:12 51°21.282 2°33.894 273.5 12.8 277.3 34
2002-04-22 08:20:18 51°21.285 2°33.86 273.3 12.8 277.6 34
2002-04-22 08:20:22 51°21.286 2°33.838 273.3 12.8 277.4 33.8
2002-04-22 08:20:28 51°21.289 2°33.804 273.2 12.8 277.5 33.9
2002-04-22 08:20:32 51°21.291 2°33.782 273.2 12.8 277.5 34.3
2002-04-22 08:20:37 51°21.293 2°33.754 273 12.8 277.2 34.7
2002-04-22 08:20:42 51°21.296 2°33.726 273.3 12.8 277.5 34.3
2002-04-22 08:20:47 51°21.298 2°33.697 273.2 12.8 277.4 33.9
2002-04-22 08:20:52 51°21.3 2°33.669 273.5 12.8 277.6 33
2002-04-22 08:20:57 51°21.303 2°33.641 273.7 12.8 277.8 32.7
2002-04-22 08:21:02 51°21.306 2°33.612 274 12.8 278.2 32.5
2002-04-22 08:21:07 51°21.308 2°33.584 273.5 12.8 278.1 32.6
2002-04-22 08:21:12 51°21.311 2°33.556 273.7 12.8 278.2 32.5
2002-04-22 08:21:17 51°21.313 2°33.528 273.3 12.9 278.1 32.2
2002-04-22 08:21:22 51°21.316 2°33.5 273.3 12.9 278 32.4
2002-04-22 08:21:27 51°21.318 2°33.471 273.7 12.9 278 32.2
2002-04-22 08:21:32 51°21.321 2°33.443 273.3 13 277.9 32.1
2002-04-22 08:21:38 51°21.324 2°33.409 273.2 13 278 31.9
2002-04-22 08:21:42 51°21.325 2°33.386 272.8 13 277.5 31.7
2002-04-22 08:21:48 51°21.328 2°33.352 272.8 13 277.8 31.9
2002-04-22 08:21:53 51°21.33 2°33.323 272.8 13 277.2 30.9
2002-04-22 08:21:57 51°21.333 2°33.3 273.3 13 278.1 30
2002-04-22 08:22:02 51°21.335 2°33.272 274.2 13 278.2 30.9
2002-04-22 08:22:07 51°21.339 2°33.244 276.2 13 280.3 31
2002-04-22 08:22:12 51°21.343 2°33.215 277.5 13 281.3 30.7
2002-04-22 08:22:18 51°21.348 2°33.181 278.7 13.1 283.1 29.6
2002-04-22 08:22:22 51°21.351 2°33.159 279.5 13.1 283.7 29.1
2002-04-22 08:22:27 51°21.357 2°33.13 280.3 13.2 285 29
2002-04-22 08:22:32 51°21.362 2°33.102 281.2 13.2 285.1 28.6
2002-04-22 08:22:37 51°21.367 2°33.074 281.5 13.2 286.3 28.3
2002-04-22 08:22:43 51°21.373 2°33.04 281.3 13.2 286.1 27.9
2002-04-22 08:22:48 51°21.378 2°33.012 281.7 13.2 286.7 27.8
2002-04-22 08:22:52 51°21.382 2°32.99 280.8 13.2 285.8 26.9
2002-04-22 08:22:57 51°21.387 2°32.961 280.3 13.2 285.7 27
2002-04-22 08:23:02 51°21.392 2°32.933 279.8 13.2 285.1 27.1
2002-04-22 08:23:07 51°21.397 2°32.905 280 13.2 285.3 26.4
2002-04-22 08:23:12 51°21.402 2°32.876 281.2 13.2 285.6 25.9
2002-04-22 08:23:17 51°21.408 2°32.849 283.8 13.3 287.9 25.8
2002-04-22 08:23:22 51°21.415 2°32.821 285.7 13.3 289.8 25.8
2002-04-22 08:23:28 51°21.424 2°32.788 287.8 13.4 292.1 25.1
2002-04-22 08:23:33 51°21.431 2°32.761 289.5 13.4 293.5 25.1
2002-04-22 08:23:38 51°21.44 2°32.735 292 13.5 294.9 24.2
2002-04-22 08:23:43 51°21.448 2°32.708 294.3 13.5 296.5 23.5
2002-04-22 08:23:48 51°21.457 2°32.682 296.3 13.4 297.4 23.3
2002-04-22 08:23:52 51°21.465 2°32.662 299 13.4 299.2 23
2002-04-22 08:23:57 51°21.475 2°32.637 301.3 13.3 301.3 22.5
2002-04-22 08:24:02 51°21.485 2°32.612 301.3 13.3 302.7 22.1
2002-04-22 08:24:08 51°21.496 2°32.582 300.3 13.3 302.5 21.6
2002-04-22 08:24:12 51°21.503 2°32.561 298.2 13.2 300.4 21.6
2002-04-22 08:24:18 51°21.514 2°32.531 297.3 13.2 299.5 21.5
2002-04-22 08:24:22 51°21.52 2°32.51 294.8 13.1 296.8 21.3
2002-04-22 08:24:28 51°21.53 2°32.479 294 13.1 295.8 21.1
2002-04-22 08:24:32 51°21.534 2°32.457 292 13.1 293.8 21
2002-04-22 08:24:38 51°21.543 2°32.425 291.5 13.1 292.8 20.7
2002-04-22 08:24:42 51°21.547 2°32.403 289.8 13.1 291 20.5
2002-04-22 08:24:47 51°21.555 2°32.376 289.7 13.1 290.4 20.7
2002-04-22 08:24:53 51°21.561 2°32.343 288.5 13.1 289.8 20.8
2002-04-22 08:24:57 51°21.567 2°32.322 288.8 13.1 289.9 20.8
2002-04-22 08:25:02 51°21.572 2°32.294 287.7 13.1 288.9 21.8
2002-04-22 08:25:07 51°21.579 2°32.267 287.8 13.1 289.4 23.2
2002-04-22 08:25:12 51°21.584 2°32.239 287.3 13.1 288.1 23.3
2002-04-22 08:25:18 51°21.592 2°32.206 288 13.1 288.8 23.4
2002-04-22 08:25:22 51°21.596 2°32.184 288 13.1 288.7 23.6
2002-04-22 08:25:28 51°21.604 2°32.151 288.7 13.1 289.3 23.6
2002-04-22 08:25:32 51°21.608 2°32.129 288.7 13.1 289.6 23.4
2002-04-22 08:25:37 51°21.615 2°32.102 289.5 13.1 291 23.7
2002-04-22 08:25:42 51°21.622 2°32.075 290 13.1 291.2 24
2002-04-22 08:25:47 51°21.63 2°32.049 292.5 13.1 293.6 23.6
2002-04-22 08:25:52 51°21.637 2°32.023 294.2 13.1 294.3 24.4
2002-04-22 08:25:57 51°21.647 2°31.998 297.7 13.1 297.8 24.4
2002-04-22 08:26:02 51°21.656 2°31.973 298.2 13.1 299.7 25.7
2002-04-22 08:26:07 51°21.666 2°31.949 300.8 13.1 301.6 25.6
2002-04-22 08:26:12 51°21.676 2°31.924 302.7 13.1 304 25.9
2002-04-22 08:26:17 51°21.688 2°31.902 304.8 13.2 306.5 26.9
2002-04-22 08:26:22 51°21.699 2°31.879 306 13.2 307.7 27
2002-04-22 08:26:28 51°21.714 2°31.853 308.8 13.2 309.8 28
2002-04-22 08:26:32 51°21.724 2°31.835 309.7 13.3 312.2 27.3
2002-04-22 08:26:37 51°21.737 2°31.815 311.8 13.2 313.6 26.6
2002-04-22 08:26:42 51°21.75 2°31.794 312.5 13.3 315.4 28.8
2002-04-22 08:26:48 51°21.767 2°31.771 315.3 13.3 316.8 29.8
2002-04-22 08:26:52 51°21.778 2°31.755 315.7 13.3 318.6 30.3
2002-04-22 08:26:57 51°21.793 2°31.737 318 13.4 319.4 30.8
2002-04-22 08:27:02 51°21.807 2°31.718 319.2 13.4 321.8 31.2
2002-04-22 08:27:08 51°21.826 2°31.698 321.8 13.4 323.3 30.7
2002-04-22 08:27:12 51°21.839 2°31.685 324.2 13.5 326.5 31
2002-04-22 08:27:17 51°21.855 2°31.669 325.7 13.6 327.2 30.6
2002-04-22 08:27:23 51°21.875 2°31.652 327.5 13.6 331 30
2002-04-22 08:27:28 51°21.891 2°31.637 326 13.6 330 28.4
2002-04-22 08:27:32 51°21.905 2°31.627 329.3 13.6 332.4 30.6
2002-04-22 08:27:37 51°21.921 2°31.612 328.8 13.6 332.3 30.8
2002-04-22 08:27:42 51°21.939 2°31.6 332 13.7 334.6 29.8
2002-04-22 08:27:47 51°21.956 2°31.586 330.7 13.7 334.9 30.5
2002-04-22 08:27:52 51°21.974 2°31.576 334.7 13.8 336.8 31.2
2002-04-22 08:27:57 51°21.992 2°31.564 333.8 13.9 338.4 33
2002-04-22 08:28:02 51°22.01 2°31.553 335.3 13.9 338.5 32.8
2002-04-22 08:28:08 51°22.032 2°31.54 336 14 340.3 31.5
2002-04-22 08:28:12 51°22.047 2°31.532 336.8 14 340.2 31.7
2002-04-22 08:28:18 51°22.07 2°31.522 339.5 14.1 343 32.4
2002-04-22 08:28:22 51°22.084 2°31.515 339.3 14.2 343.1 33.2
2002-04-22 08:28:27 51°22.104 2°31.509 342.2 14.2 345.8 32.8
2002-04-22 08:28:32 51°22.123 2°31.499 340.7 14.2 344.7 30.8
2002-04-22 08:28:38 51°22.146 2°31.492 343.8 14.3 346.9 32.2
2002-04-22 08:28:42 51°22.161 2°31.484 340.7 14.2 345.3 32.3
2002-04-22 08:28:47 51°22.181 2°31.479 344 14.3 347.5 32
2002-04-22 08:28:52 51°22.2 2°31.469 340.2 14.2 345.4 32.8
2002-04-22 08:28:57 51°22.219 2°31.464 343.2 14.3 346.5 32.8
2002-04-22 08:29:02 51°22.238 2°31.454 340.2 14.2 345.1 32.8
2002-04-22 08:29:08 51°22.262 2°31.447 342.8 14.2 346.2 32.2
2002-04-22 08:29:12 51°22.276 2°31.439 339.7 14.2 345.3 31.9
2002-04-22 08:29:18 51°22.3 2°31.431 341.3 14.2 345.3 32.7
2002-04-22 08:29:22 51°22.314 2°31.423 339.5 14.2 345 32.5
2002-04-22 08:29:27 51°22.334 2°31.416 341 14.1 344.6 32.4
2002-04-22 08:29:32 51°22.353 2°31.407 339.8 14.2 345.1 32.6
2002-04-22 08:29:37 51°22.371 2°31.399 340.2 14.1 343.9 32.3
2002-04-22 08:29:42 51°22.39 2°31.391 339.2 14.1 345.1 32
2002-04-22 08:29:47 51°22.408 2°31.381 337.8 14 342.9 32
2002-04-22 08:29:52 51°22.428 2°31.373 337.7 14.1 343.5 32.6
2002-04-22 08:29:58 51°22.449 2°31.359 334 14 340.2 32.4
2002-04-22 08:30:03 51°22.467 2°31.349 335.3 13.9 340.4 32.3
2002-04-22 08:30:08 51°22.484 2°31.335 330.3 13.8 337.3 32.4
2002-04-22 08:30:12 51°22.498 2°31.326 330.3 13.8 336.1 32.5
2002-04-22 08:30:18 51°22.518 2°31.307 325.7 13.7 333.2 31.6
2002-04-22 08:30:22 51°22.531 2°31.296 326.5 13.6 331.7 33
2002-04-22 08:30:27 51°22.546 2°31.279 321.5 13.5 329.5 32.7
2002-04-22 08:30:32 51°22.562 2°31.263 320 13.4 325.7 31.1
2002-04-22 08:30:38 51°22.578 2°31.24 316.2 13.3 323.6 32.7
2002-04-22 08:30:42 51°22.589 2°31.224 312.5 13.1 319.1 32.8
2002-04-22 08:30:47 51°22.601 2°31.203 307.7 12.9 314.9 32.7
2002-04-22 08:30:52 51°22.612 2°31.181 305.2 12.8 311.2 32.3
2002-04-22 08:30:57 51°22.623 2°31.159 302.2 12.8 309.8 32.4
2002-04-22 08:31:02 51°22.633 2°31.136 300.7 12.8 306.3 32.6
2002-04-22 08:31:08 51°22.645 2°31.107 298.3 12.8 305.8 32.4
2002-04-22 08:31:12 51°22.652 2°31.088 297.2 12.8 302.3 29.7
2002-04-22 08:31:17 51°22.661 2°31.064 295.2 12.8 302 31.9
2002-04-22 08:31:22 51°22.668 2°31.038 290.8 12.6 297 32
2002-04-22 08:31:28 51°22.676 2°31.008 288.5 12.5 294.5 31.6
2002-04-22 08:31:33 51°22.682 2°30.982 285.7 12.5 291 31.5
2002-04-22 08:31:38 51°22.687 2°30.956 284.2 12.5 289.5 30.8
2002-04-22 08:31:43 51°22.692 2°30.929 282 12.4 286.9 28.9
2002-04-22 08:31:47 51°22.695 2°30.908 279.2 12.4 285.5 30.7
2002-04-22 08:31:52 51°22.697 2°30.881 276.7 12.3 281.4 31.8
2002-04-22 08:31:57 51°22.701 2°30.855 275.2 12.3 280.2 32.5
2002-04-22 08:32:02 51°22.702 2°30.828 273.2 12.2 278.5 32.4
2002-04-22 08:32:07 51°22.704 2°30.801 272 12.2 276.8 32.5
2002-04-22 08:32:12 51°22.705 2°30.774 271 12.2 274.7 32.1
2002-04-22 08:32:17 51°22.707 2°30.747 270.7 12.2 274.7 29.6
2002-04-22 08:32:22 51°22.707 2°30.72 269.8 12.2 274 31.2
2002-04-22 08:32:27 51°22.708 2°30.693 269.3 12.2 273.5 32.1
2002-04-22 08:32:32 51°22.709 2°30.666 268.7 12.2 272.5 32.7
2002-04-22 08:32:38 51°22.71 2°30.634 268.7 12.2 272.3 33.2
2002-04-22 08:32:42 51°22.71 2°30.612 268.5 12.2 271.7 33
2002-04-22 08:32:47 51°22.711 2°30.585 268.3 12.2 272 32
2002-04-22 08:32:53 51°22.711 2°30.553 268.7 12.2 271.7 32.1
2002-04-22 08:32:58 51°22.712 2°30.526 269 12.2 272.3 30.1
2002-04-22 08:33:02 51°22.713 2°30.504 269.2 12.1 272.2 31.5
2002-04-22 08:33:07 51°22.714 2°30.477 269.8 12.1 272.7 33.2
2002-04-22 08:33:12 51°22.714 2°30.451 267.8 12.1 272.1 32.8
2002-04-22 08:33:18 51°22.714 2°30.419 266.8 12 270.6 32.5
2002-04-22 08:33:22 51°22.713 2°30.398 265.7 12 269.3 33.7
2002-04-22 08:33:28 51°22.713 2°30.366 264.7 12 268.4 33.9
2002-04-22 08:33:32 51°22.712 2°30.344 263.8 12 267.1 31.6
2002-04-22 08:33:37 51°22.711 2°30.318 263.3 12 266.1 33.3
2002-04-22 08:33:42 51°22.709 2°30.291 262.8 12 266.1 34
2002-04-22 08:33:47 51°22.708 2°30.265 262.5 12 265.6 34
2002-04-22 08:33:52 51°22.707 2°30.238 262.5 12.1 265.5 33.9
2002-04-22 08:33:57 51°22.705 2°30.211 262.8 12.1 265.6 33.9
2002-04-22 08:34:02 51°22.704 2°30.185 263.2 12.1 265.9 34.2
2002-04-22 08:34:07 51°22.703 2°30.158 263.5 12.1 266.1 34.4
2002-04-22 08:34:12 51°22.702 2°30.131 263.8 12.1 266.9 34
2002-04-22 08:34:17 51°22.701 2°30.104 263.8 12.1 266.7 34.2
2002-04-22 08:34:22 51°22.701 2°30.077 263.7 12.1 267.1 34
2002-04-22 08:34:28 51°22.699 2°30.045 263.7 12.1 266.8 34.2
2002-04-22 08:34:32 51°22.699 2°30.024 264 12.1 267 34.1
2002-04-22 08:34:37 51°22.698 2°29.997 264 12.1 267.4 34.4
2002-04-22 08:34:43 51°22.697 2°29.965 264 12.1 267.4 34.4
2002-04-22 08:34:48 51°22.697 2°29.938 264.5 12.1 267.8 34.4
2002-04-22 08:34:52 51°22.696 2°29.917 264.8 12.1 268 34.5
2002-04-22 08:34:57 51°22.695 2°29.89 264.7 12.1 268.3 34.5
2002-04-22 08:35:02 51°22.695 2°29.863 264.5 12.1 267.9 34.6
2002-04-22 08:35:08 51°22.694 2°29.831 264.7 12.1 268.2 34.7
2002-04-22 08:35:12 51°22.694 2°29.81 264.3 12.1 267.7 34.8
2002-04-22 08:35:18 51°22.693 2°29.778 264.2 12.1 267.9 34.6
2002-04-22 08:35:22 51°22.692 2°29.756 264.3 12.1 267.7 34.6
2002-04-22 08:35:27 51°22.691 2°29.73 264.2 12 267.5 34.8
2002-04-22 08:35:32 51°22.691 2°29.703 264.2 12 267.4 34.7
2002-04-22 08:35:38 51°22.69 2°29.671 264.7 12 267.7 34.6
2002-04-22 08:35:42 51°22.69 2°29.65 264.7 12 267.7 34.3
2002-04-22 08:35:47 51°22.689 2°29.623 264.5 12 267.8 34.5
2002-04-22 08:35:52 51°22.688 2°29.597 264.3 12 267.6 34.7
2002-04-22 08:35:57 51°22.688 2°29.57 264.5 12 267.6 35.1
2002-04-22 08:36:02 51°22.687 2°29.543 264.3 12 267.5 35.2
2002-04-22 08:36:07 51°22.686 2°29.517 264.2 12 267.2 34.9
2002-04-22 08:36:12 51°22.685 2°29.491 264.2 12 267.3 34.4
2002-04-22 08:36:17 51°22.685 2°29.464 264.2 11.9 267.5 34.3
2002-04-22 08:36:22 51°22.684 2°29.438 264.2 11.9 267.5 34.2